Time;durP1;ratioP1;P1;durP2;ratioP2;P2;SDS_P1;SDS_P2;PMS_P1;PMS_P2;Temp;Humidity;BMP_temperature;BMP_pressure;BME280_temperature;BME280_humidity;BME280_pressure;Samples;Min_cycle;Max_cycle;Signal;HPM_P1;HPM_P2
2023/01/17 00:01:26;;;;;;;6.53;3.15;;;;;;;;;;4972429;28;20033;-75
2023/01/17 00:12:04;;;;;;;10.73;3.78;;;;;;;;;;4989366;28;20052;-75
2023/01/17 00:14:29;;;;;;;8.60;3.28;;;;;;;;;;4982720;28;20043;-75
2023/01/17 00:16:54;;;;;;;6.03;3.47;;;;;;;;;;4969954;28;20597;-75
2023/01/17 01:33:50;;;;;;;4.15;2.28;;;;;;;;;;4949977;29;20026;-75
2023/01/17 01:36:15;;;;;;;7.35;3.33;;;;;;;;;;4948141;28;20038;-76
2023/01/17 01:38:41;;;;;;;6.18;3.13;;;;;;;;;;4947884;28;20047;-75
2023/01/17 01:41:06;;;;;;;7.15;3.60;;;;;;;;;;4950077;28;20035;-76
2023/01/17 01:43:44;;;;;;;8.88;3.00;;;;;;;;;;4949363;28;20039;-75
2023/01/17 01:46:37;;;;;;;6.70;2.65;;;;;;;;;;4961110;28;20061;-76
2023/01/17 01:49:18;;;;;;;4.78;2.55;;;;;;;;;;4977229;28;20038;-76
2023/01/17 01:51:48;;;;;;;8.90;3.38;;;;;;;;;;4987769;28;20022;-75
2023/01/17 01:54:19;;;;;;;5.10;3.00;;;;;;;;;;4969903;28;20043;-75
2023/01/17 01:56:46;;;;;;;6.60;3.15;;;;;;;;;;4966416;28;20039;-76
2023/01/17 01:59:15;;;;;;;6.13;3.28;;;;;;;;;;4968049;28;20054;-76
2023/01/17 02:01:41;;;;;;;6.57;2.85;;;;;;;;;;4968340;28;20057;-76
2023/01/17 02:04:10;;;;;;;10.75;2.58;;;;;;;;;;4966532;28;20046;-76
2023/01/17 02:06:38;;;;;;;6.20;3.60;;;;;;;;;;4968056;28;20031;-75
2023/01/17 02:09:09;;;;;;;6.70;2.83;;;;;;;;;;4968500;28;20062;-76
2023/01/17 02:11:36;;;;;;;8.25;3.35;;;;;;;;;;4968114;28;20085;-76
2023/01/17 02:14:02;;;;;;;7.30;2.97;;;;;;;;;;4962734;28;20087;-75
2023/01/17 02:16:41;;;;;;;11.20;3.30;;;;;;;;;;4966589;28;20039;-75
2023/01/17 02:19:30;;;;;;;7.63;3.55;;;;;;;;;;4968112;28;20109;-76
2023/01/17 02:22:23;;;;;;;6.88;3.70;;;;;;;;;;4967824;28;20033;-76
2023/01/17 02:25:08;;;;;;;8.20;3.87;;;;;;;;;;4968427;28;20109;-75
2023/01/17 02:27:52;;;;;;;11.10;4.20;;;;;;;;;;4966578;28;20074;-75
2023/01/17 02:30:32;;;;;;;10.85;4.65;;;;;;;;;;4962568;28;20027;-75
2023/01/17 02:33:23;;;;;;;12.65;4.18;;;;;;;;;;4947823;28;20027;-75
2023/01/17 02:36:21;;;;;;;7.00;3.33;;;;;;;;;;4964305;28;20047;-75
2023/01/17 02:38:55;;;;;;;8.57;3.95;;;;;;;;;;4964204;28;20065;-75
2023/01/17 02:41:27;;;;;;;13.43;4.18;;;;;;;;;;4960583;28;20109;-75
2023/01/17 02:43:52;;;;;;;6.88;3.78;;;;;;;;;;4959890;28;20039;-75
2023/01/17 02:46:18;;;;;;;13.48;4.05;;;;;;;;;;4958000;28;20046;-76
2023/01/17 02:48:45;;;;;;;5.72;3.55;;;;;;;;;;4949021;28;20042;-75
2023/01/17 02:51:37;;;;;;;8.68;3.42;;;;;;;;;;4949154;28;20472;-75
2023/01/17 02:54:12;;;;;;;9.15;4.07;;;;;;;;;;4976071;28;20149;-75
2023/01/17 02:56:52;;;;;;;11.45;4.90;;;;;;;;;;4954592;28;20040;-75
2023/01/17 02:59:44;;;;;;;6.63;3.33;;;;;;;;;;4946435;28;20041;-76
2023/01/17 03:02:12;;;;;;;9.57;4.15;;;;;;;;;;4946233;28;20051;-76
2023/01/17 03:04:50;;;;;;;8.95;4.43;;;;;;;;;;4948447;28;20032;-75
2023/01/17 03:07:21;;;;;;;11.07;4.65;;;;;;;;;;4948475;28;20126;-75
2023/01/17 03:09:52;;;;;;;11.20;3.72;;;;;;;;;;4948541;28;20038;-75
2023/01/17 03:12:19;;;;;;;7.75;4.35;;;;;;;;;;4947128;28;20102;-76
2023/01/17 03:14:44;;;;;;;10.88;4.35;;;;;;;;;;4939785;28;20086;-75
2023/01/17 03:17:10;;;;;;;8.90;3.95;;;;;;;;;;4970776;28;20129;-75
2023/01/17 03:19:35;;;;;;;11.40;4.65;;;;;;;;;;4970714;28;20031;-75
2023/01/17 03:22:00;;;;;;;10.45;4.30;;;;;;;;;;4965710;28;20518;-75
2023/01/17 03:24:26;;;;;;;11.70;4.57;;;;;;;;;;4986303;28;20531;-76
2023/01/17 03:26:51;;;;;;;10.82;4.88;;;;;;;;;;4954023;28;20035;-75
2023/01/17 03:29:16;;;;;;;9.20;4.50;;;;;;;;;;4970728;28;20045;-76
2023/01/17 03:31:42;;;;;;;9.88;4.80;;;;;;;;;;4970542;28;20043;-75
2023/01/17 03:34:07;;;;;;;10.63;5.05;;;;;;;;;;4986366;28;20030;-76
2023/01/17 03:36:33;;;;;;;11.73;5.05;;;;;;;;;;4970578;28;20055;-75
2023/01/17 03:38:58;;;;;;;11.40;4.15;;;;;;;;;;4968827;28;20455;-77
2023/01/17 03:41:23;;;;;;;11.65;4.30;;;;;;;;;;4971135;28;20062;-75
2023/01/17 03:43:49;;;;;;;9.15;3.60;;;;;;;;;;4970604;28;20706;-75
2023/01/17 03:46:24;;;;;;;9.07;4.50;;;;;;;;;;4986135;28;20121;-75
2023/01/17 03:48:50;;;;;;;10.75;3.72;;;;;;;;;;4989271;28;20018;-75
2023/01/17 03:51:16;;;;;;;10.13;4.50;;;;;;;;;;4990867;28;20038;-75
2023/01/17 03:53:41;;;;;;;7.78;3.72;;;;;;;;;;4990494;28;20034;-76
2023/01/17 03:56:07;;;;;;;8.52;3.80;;;;;;;;;;4987149;28;20030;-76
2023/01/17 03:58:32;;;;;;;7.82;4.07;;;;;;;;;;4951029;28;20034;-75
2023/01/17 04:00:58;;;;;;;10.13;4.90;;;;;;;;;;4934755;29;20070;-75
2023/01/17 04:03:23;;;;;;;9.68;3.72;;;;;;;;;;4950312;29;20055;-75
2023/01/17 04:05:48;;;;;;;13.13;4.20;;;;;;;;;;4951941;28;20039;-75
2023/01/17 04:08:14;;;;;;;8.02;4.40;;;;;;;;;;4950898;28;20142;-75
2023/01/17 04:10:39;;;;;;;11.73;4.95;;;;;;;;;;4951137;28;20534;-75
2023/01/17 04:13:04;;;;;;;10.80;4.55;;;;;;;;;;4934256;28;20081;-75
2023/01/17 04:15:30;;;;;;;10.52;5.03;;;;;;;;;;4965217;28;20054;-75
2023/01/17 04:17:55;;;;;;;9.50;4.18;;;;;;;;;;4968789;28;20031;-75
2023/01/17 04:20:36;;;;;;;7.50;3.88;;;;;;;;;;4953338;28;20035;-75
2023/01/17 04:23:02;;;;;;;10.38;4.88;;;;;;;;;;4969958;28;20042;-76
2023/01/17 04:25:29;;;;;;;10.18;3.83;;;;;;;;;;4970034;28;20039;-75
2023/01/17 04:27:55;;;;;;;11.95;4.45;;;;;;;;;;4968200;28;20058;-75
2023/01/17 04:30:20;;;;;;;8.95;4.72;;;;;;;;;;4969909;28;20535;-75
2023/01/17 04:32:45;;;;;;;12.52;5.40;;;;;;;;;;4970630;28;20038;-76
2023/01/17 04:35:11;;;;;;;14.32;4.93;;;;;;;;;;4969742;28;20041;-75
2023/01/17 04:37:37;;;;;;;12.20;4.30;;;;;;;;;;4970092;28;20428;-75
2023/01/17 04:40:03;;;;;;;9.55;3.83;;;;;;;;;;4970092;28;20038;-75
2023/01/17 04:42:29;;;;;;;14.57;4.53;;;;;;;;;;4952578;28;20027;-76
2023/01/17 04:44:54;;;;;;;6.88;3.78;;;;;;;;;;4969301;28;20047;-75
2023/01/17 04:47:19;;;;;;;10.10;3.72;;;;;;;;;;4969888;28;20546;-75
2023/01/17 04:49:45;;;;;;;10.70;3.80;;;;;;;;;;4969508;28;20027;-75
2023/01/17 04:52:10;;;;;;;11.18;5.22;;;;;;;;;;4971324;28;20165;-75
2023/01/17 04:54:36;;;;;;;13.23;3.92;;;;;;;;;;4989740;28;20018;-75
2023/01/17 04:57:01;;;;;;;13.57;5.70;;;;;;;;;;4984843;28;20088;-76
2023/01/17 04:59:27;;;;;;;8.80;3.45;;;;;;;;;;4966101;28;20066;-75
2023/01/17 05:01:52;;;;;;;9.98;4.78;;;;;;;;;;4949757;28;20027;-75
2023/01/17 05:04:17;;;;;;;9.93;3.70;;;;;;;;;;4949579;28;20032;-75
2023/01/17 05:06:43;;;;;;;7.65;4.25;;;;;;;;;;4933989;29;20086;-75
2023/01/17 05:09:09;;;;;;;8.73;3.53;;;;;;;;;;4949646;28;20051;-75
2023/01/17 05:11:34;;;;;;;10.70;4.53;;;;;;;;;;4950020;28;20168;-76
2023/01/17 05:14:00;;;;;;;9.90;4.90;;;;;;;;;;4934300;28;20032;-75
2023/01/17 05:16:25;;;;;;;12.85;4.72;;;;;;;;;;4949480;28;20039;-75
2023/01/17 05:18:52;;;;;;;9.80;4.28;;;;;;;;;;4951149;28;20090;-75
2023/01/17 05:21:18;;;;;;;10.10;5.07;;;;;;;;;;4949253;28;20027;-75
2023/01/17 05:23:43;;;;;;;10.02;5.05;;;;;;;;;;4950416;28;20047;-75
2023/01/17 05:26:08;;;;;;;25.88;4.65;;;;;;;;;;4949811;28;20039;-76
2023/01/17 05:28:34;;;;;;;13.02;4.72;;;;;;;;;;4964144;28;20054;-75
2023/01/17 05:30:59;;;;;;;12.55;3.80;;;;;;;;;;4950121;28;20024;-76
2023/01/17 05:33:24;;;;;;;10.80;4.65;;;;;;;;;;4962553;28;20061;-76
2023/01/17 05:35:50;;;;;;;14.60;5.10;;;;;;;;;;4956318;28;20038;-76
2023/01/17 05:38:15;;;;;;;10.50;5.22;;;;;;;;;;4968843;28;20118;-76
2023/01/17 05:40:41;;;;;;;12.52;5.45;;;;;;;;;;4968773;28;20050;-76
2023/01/17 05:43:07;;;;;;;9.85;4.90;;;;;;;;;;4951322;28;20038;-76
2023/01/17 05:45:33;;;;;;;16.27;5.50;;;;;;;;;;4969206;28;20054;-76
2023/01/17 05:47:58;;;;;;;12.38;4.40;;;;;;;;;;4968519;28;20105;-77
2023/01/17 05:50:27;;;;;;;12.93;4.72;;;;;;;;;;4963017;28;20041;-76
2023/01/17 05:52:55;;;;;;;9.68;4.97;;;;;;;;;;4975027;28;20031;-76
2023/01/17 05:55:21;;;;;;;10.20;4.53;;;;;;;;;;4988222;28;20054;-76
2023/01/17 05:57:47;;;;;;;10.95;4.65;;;;;;;;;;4982308;28;20046;-76
2023/01/17 06:00:14;;;;;;;12.27;5.50;;;;;;;;;;4967915;28;20035;-76
2023/01/17 06:02:39;;;;;;;9.02;5.00;;;;;;;;;;4967413;28;20045;-77
2023/01/17 06:05:04;;;;;;;13.18;5.20;;;;;;;;;;4969399;28;20038;-76
2023/01/17 06:07:30;;;;;;;15.70;5.30;;;;;;;;;;4967941;28;20034;-77
2023/01/17 06:09:56;;;;;;;9.75;4.80;;;;;;;;;;4968388;28;20023;-76
2023/01/17 06:12:21;;;;;;;9.40;4.65;;;;;;;;;;4968890;28;20163;-76
2023/01/17 06:14:46;;;;;;;12.55;3.83;;;;;;;;;;4961908;28;20503;-76
2023/01/17 06:17:12;;;;;;;8.43;3.58;;;;;;;;;;4968065;28;20035;-76
2023/01/17 06:19:37;;;;;;;13.15;5.90;;;;;;;;;;4968669;28;20038;-76
2023/01/17 06:22:03;;;;;;;12.85;5.93;;;;;;;;;;4967569;28;20058;-77
2023/01/17 06:24:29;;;;;;;20.80;5.22;;;;;;;;;;4969337;28;20077;-77
2023/01/17 06:26:55;;;;;;;20.48;7.18;;;;;;;;;;4967442;28;20051;-76
2023/01/17 06:29:20;;;;;;;26.77;9.35;;;;;;;;;;4967686;28;20054;-77
2023/01/17 06:31:45;;;;;;;35.50;12.00;;;;;;;;;;4948149;28;20076;-76
2023/01/17 06:34:11;;;;;;;34.05;9.60;;;;;;;;;;4967931;28;20066;-76
2023/01/17 06:36:36;;;;;;;37.50;11.02;;;;;;;;;;4966638;28;20030;-76
2023/01/17 06:39:01;;;;;;;32.20;10.95;;;;;;;;;;4967134;28;20038;-77
2023/01/17 06:41:27;;;;;;;17.50;6.85;;;;;;;;;;4967328;28;20038;-76
2023/01/17 06:43:52;;;;;;;12.35;5.35;;;;;;;;;;4982842;28;20038;-76
2023/01/17 06:46:18;;;;;;;12.30;5.53;;;;;;;;;;4982418;28;20043;-76
2023/01/17 06:48:43;;;;;;;9.05;3.83;;;;;;;;;;4968622;28;20031;-77
2023/01/17 06:51:09;;;;;;;9.55;4.90;;;;;;;;;;4966793;28;20459;-75
2023/01/17 06:53:35;;;;;;;11.00;5.70;;;;;;;;;;4969861;28;20057;-76
2023/01/17 06:56:01;;;;;;;14.07;6.03;;;;;;;;;;4967135;28;20039;-76
2023/01/17 06:58:26;;;;;;;15.82;5.88;;;;;;;;;;4967279;28;20392;-76
2023/01/17 07:00:51;;;;;;;12.88;5.22;;;;;;;;;;4950912;28;20479;-76
2023/01/17 07:03:25;;;;;;;11.18;5.30;;;;;;;;;;4965914;28;20034;-76
2023/01/17 07:05:51;;;;;;;14.13;5.82;;;;;;;;;;4967409;28;20137;-77
2023/01/17 07:08:18;;;;;;;14.43;5.65;;;;;;;;;;4963871;28;20045;-77
2023/01/17 07:10:45;;;;;;;10.48;5.57;;;;;;;;;;4964687;28;20598;-77
2023/01/17 07:13:11;;;;;;;15.98;6.38;;;;;;;;;;4942996;28;20035;-77
2023/01/17 07:15:37;;;;;;;10.93;5.47;;;;;;;;;;4961236;28;20050;-77
2023/01/17 07:18:03;;;;;;;13.77;5.78;;;;;;;;;;4979403;28;20066;-77
2023/01/17 07:20:29;;;;;;;10.93;5.20;;;;;;;;;;4967623;28;20051;-77
2023/01/17 07:22:54;;;;;;;6.93;4.35;;;;;;;;;;4965047;28;20588;-77
2023/01/17 07:25:20;;;;;;;8.57;3.42;;;;;;;;;;4962950;28;21193;-77
2023/01/17 07:27:45;;;;;;;9.05;4.32;;;;;;;;;;4962893;28;20393;-77
2023/01/17 07:30:11;;;;;;;10.77;3.95;;;;;;;;;;4959781;28;20085;-77
2023/01/17 07:32:36;;;;;;;16.20;5.10;;;;;;;;;;4945866;28;20559;-77
2023/01/17 07:35:01;;;;;;;12.38;4.32;;;;;;;;;;4950068;28;20050;-77
2023/01/17 07:37:27;;;;;;;15.45;5.13;;;;;;;;;;4969298;28;20043;-77
2023/01/17 07:39:53;;;;;;;16.45;7.53;;;;;;;;;;4949395;28;20029;-76
2023/01/17 07:42:18;;;;;;;19.73;7.90;;;;;;;;;;4964749;28;20046;-77
2023/01/17 07:44:44;;;;;;;25.10;10.50;;;;;;;;;;4947461;28;20054;-77
2023/01/17 07:47:10;;;;;;;19.33;9.32;;;;;;;;;;4964514;28;20637;-77
2023/01/17 07:49:35;;;;;;;20.80;6.97;;;;;;;;;;4966478;28;20468;-76
2023/01/17 07:52:01;;;;;;;19.52;7.30;;;;;;;;;;4942265;28;20073;-76
2023/01/17 07:54:26;;;;;;;26.40;10.00;;;;;;;;;;4963693;28;20066;-77
2023/01/17 07:56:52;;;;;;;20.58;8.60;;;;;;;;;;4946237;28;20049;-77
2023/01/17 07:59:17;;;;;;;17.38;7.32;;;;;;;;;;4969534;28;20419;-76
2023/01/17 08:01:43;;;;;;;19.25;7.22;;;;;;;;;;4969867;28;20049;-76
2023/01/17 08:04:09;;;;;;;16.27;6.82;;;;;;;;;;4972731;28;20095;-77
2023/01/17 08:06:38;;;;;;;19.67;8.07;;;;;;;;;;4961557;28;20767;-77
2023/01/17 08:09:03;;;;;;;21.05;6.45;;;;;;;;;;4957901;28;20042;-77
2023/01/17 08:11:28;;;;;;;15.65;6.00;;;;;;;;;;4947891;28;20031;-77
2023/01/17 08:13:58;;;;;;;16.20;6.43;;;;;;;;;;4965346;28;20030;-77
2023/01/17 08:16:24;;;;;;;14.18;5.07;;;;;;;;;;4974596;28;20065;-77
2023/01/17 08:18:50;;;;;;;18.85;7.78;;;;;;;;;;4973016;28;20029;-76
2023/01/17 08:21:16;;;;;;;17.45;7.00;;;;;;;;;;4964969;28;20051;-77
2023/01/17 08:23:42;;;;;;;16.77;7.00;;;;;;;;;;4982410;28;20069;-77
2023/01/17 08:26:07;;;;;;;20.98;6.88;;;;;;;;;;4965449;28;20076;-77
2023/01/17 08:28:33;;;;;;;10.27;5.43;;;;;;;;;;4951411;28;20081;-77
2023/01/17 08:31:05;;;;;;;14.52;6.32;;;;;;;;;;4976757;28;20037;-76
2023/01/17 08:33:31;;;;;;;12.98;5.85;;;;;;;;;;4965594;28;20019;-76
2023/01/17 08:35:57;;;;;;;15.38;6.70;;;;;;;;;;4964968;28;20046;-77
2023/01/17 08:38:22;;;;;;;14.98;7.47;;;;;;;;;;4969492;28;20073;-77
2023/01/17 08:40:51;;;;;;;13.55;6.78;;;;;;;;;;4955955;28;20046;-77
2023/01/17 08:43:17;;;;;;;18.60;6.93;;;;;;;;;;4955080;28;20050;-77
2023/01/17 08:45:48;;;;;;;20.35;8.77;;;;;;;;;;4956931;28;20586;-77
2023/01/17 08:48:14;;;;;;;17.80;7.25;;;;;;;;;;4957472;28;20428;-77
2023/01/17 08:50:40;;;;;;;19.30;7.63;;;;;;;;;;4951246;28;20038;-77
2023/01/17 08:53:05;;;;;;;14.90;6.45;;;;;;;;;;4966413;28;20104;-76
2023/01/17 08:55:32;;;;;;;11.75;5.70;;;;;;;;;;4961595;28;20073;-77
2023/01/17 08:57:57;;;;;;;13.85;6.10;;;;;;;;;;4963086;28;20030;-77
2023/01/17 09:00:23;;;;;;;16.08;6.65;;;;;;;;;;4970985;28;20046;-77
2023/01/17 09:02:50;;;;;;;18.10;6.47;;;;;;;;;;4970901;28;20039;-77
2023/01/17 09:05:15;;;;;;;17.73;5.93;;;;;;;;;;4959480;28;20046;-77
2023/01/17 09:07:41;;;;;;;16.55;6.15;;;;;;;;;;4962811;28;20089;-77
2023/01/17 09:10:07;;;;;;;14.88;6.20;;;;;;;;;;4960070;28;20104;-76
2023/01/17 09:12:33;;;;;;;13.10;5.97;;;;;;;;;;4944495;28;20058;-77
2023/01/17 09:14:59;;;;;;;19.38;6.70;;;;;;;;;;4967207;28;20053;-77
2023/01/17 09:17:24;;;;;;;14.85;5.55;;;;;;;;;;4969466;28;20504;-77
2023/01/17 09:19:50;;;;;;;23.52;8.63;;;;;;;;;;4962497;28;20090;-77
2023/01/17 09:22:15;;;;;;;21.77;7.68;;;;;;;;;;4951883;28;20826;-77
2023/01/17 09:24:42;;;;;;;16.45;7.03;;;;;;;;;;4969190;28;20062;-76
2023/01/17 09:27:07;;;;;;;19.25;6.90;;;;;;;;;;4974494;28;20197;-76
2023/01/17 09:29:32;;;;;;;16.85;7.78;;;;;;;;;;4979278;28;20046;-77
2023/01/17 09:31:59;;;;;;;20.52;7.28;;;;;;;;;;4966200;28;20129;-77
2023/01/17 09:34:25;;;;;;;20.17;6.88;;;;;;;;;;4969370;28;20042;-77
2023/01/17 09:36:50;;;;;;;15.23;6.90;;;;;;;;;;4950000;28;20026;-76
2023/01/17 09:39:16;;;;;;;18.90;7.40;;;;;;;;;;4961792;28;20097;-77
2023/01/17 09:41:52;;;;;;;17.42;7.75;;;;;;;;;;4943905;28;20058;-77
2023/01/17 09:44:23;;;;;;;13.82;6.72;;;;;;;;;;4967101;28;20046;-77
2023/01/17 09:46:52;;;;;;;16.27;6.15;;;;;;;;;;4960495;28;20133;-76
2023/01/17 09:49:41;;;;;;;17.75;7.03;;;;;;;;;;4961492;28;20034;-77
2023/01/17 09:52:09;;;;;;;15.63;7.35;;;;;;;;;;4959793;28;20030;-77
2023/01/17 09:54:39;;;;;;;19.15;8.65;;;;;;;;;;4957726;28;20666;-77
2023/01/17 09:57:35;;;;;;;16.98;7.90;;;;;;;;;;4941830;28;20053;-77
2023/01/17 10:00:12;;;;;;;20.02;7.60;;;;;;;;;;4934005;28;20042;-74
2023/01/17 10:03:15;;;;;;;31.20;6.82;;;;;;;;;;4954857;28;20627;-75
2023/01/17 10:05:55;;;;;;;17.83;7.38;;;;;;;;;;4958037;28;20134;-74
2023/01/17 10:08:51;;;;;;;21.20;8.10;;;;;;;;;;4965495;28;20043;-74
2023/01/17 10:11:42;;;;;;;16.88;6.85;;;;;;;;;;4928725;28;20575;-74
2023/01/17 10:14:33;;;;;;;19.27;6.95;;;;;;;;;;4958660;28;20571;-73
2023/01/17 10:17:19;;;;;;;12.73;6.53;;;;;;;;;;4961605;28;20034;-73
2023/01/17 10:20:24;;;;;;;12.35;6.80;;;;;;;;;;4947444;28;20035;-74
2023/01/17 10:23:29;;;;;;;18.27;6.85;;;;;;;;;;4971462;28;20515;-74
2023/01/17 10:25:58;;;;;;;13.52;5.22;;;;;;;;;;4956105;28;20964;-75
2023/01/17 10:28:37;;;;;;;16.27;7.35;;;;;;;;;;4961098;28;20034;-73
2023/01/17 10:31:10;;;;;;;13.90;6.32;;;;;;;;;;4952532;28;20148;-74
2023/01/17 10:33:47;;;;;;;18.33;7.13;;;;;;;;;;4956414;28;20034;-78
2023/01/17 10:36:23;;;;;;;16.33;7.50;;;;;;;;;;4953069;28;20042;-76
2023/01/17 10:38:52;;;;;;;16.33;7.50;;;;;;;;;;4954499;28;20709;-76
2023/01/17 10:41:26;;;;;;;27.08;8.18;;;;;;;;;;4942663;28;20480;-76
2023/01/17 10:44:02;;;;;;;22.13;7.82;;;;;;;;;;4959686;28;20053;-75
2023/01/17 10:46:37;;;;;;;19.50;7.20;;;;;;;;;;4963537;28;20041;-75
2023/01/17 10:49:02;;;;;;;17.38;6.07;;;;;;;;;;4943218;28;20047;-76
2023/01/17 10:51:33;;;;;;;19.80;7.43;;;;;;;;;;4959487;28;20042;-75
2023/01/17 10:54:27;;;;;;;19.90;7.50;;;;;;;;;;4963837;28;20034;-76
2023/01/17 10:56:52;;;;;;;16.10;5.60;;;;;;;;;;4978074;28;20081;-75
2023/01/17 10:59:27;;;;;;;20.00;8.13;;;;;;;;;;4963817;28;20035;-76
2023/01/17 11:01:52;;;;;;;24.05;6.93;;;;;;;;;;4968205;28;20035;-76
2023/01/17 11:04:22;;;;;;;15.40;6.28;;;;;;;;;;4961553;28;20039;-76
2023/01/17 11:07:12;;;;;;;15.50;6.68;;;;;;;;;;4969945;28;20030;-76
2023/01/17 11:09:45;;;;;;;16.38;7.18;;;;;;;;;;4961703;28;20070;-78
2023/01/17 11:12:31;;;;;;;;;;;;;;;;;;4962505;28;20039;-75
2023/01/17 11:15:08;;;;;;;12.75;5.97;;;;;;;;;;4945446;28;19950;-75
2023/01/17 11:17:51;;;;;;;14.27;6.45;;;;;;;;;;4959644;28;20084;-75
2023/01/17 11:20:33;;;;;;;14.25;6.65;;;;;;;;;;4952501;28;20114;-75
2023/01/17 11:23:04;;;;;;;17.40;6.68;;;;;;;;;;4965249;28;20037;-75
2023/01/17 11:25:34;;;;;;;24.30;8.60;;;;;;;;;;4949257;28;20088;-75
2023/01/17 11:28:03;;;;;;;19.30;7.75;;;;;;;;;;4950753;28;21440;-75
2023/01/17 11:30:29;;;;;;;23.73;7.22;;;;;;;;;;4950416;28;20023;-75
2023/01/17 11:32:59;;;;;;;16.85;7.57;;;;;;;;;;4950167;28;20049;-75
2023/01/17 11:35:28;;;;;;;14.18;6.57;;;;;;;;;;4963230;28;20109;-75
2023/01/17 11:37:58;;;;;;;17.20;5.88;;;;;;;;;;4956989;28;20475;-75
2023/01/17 11:40:25;;;;;;;14.75;5.95;;;;;;;;;;4964804;28;20078;-75
2023/01/17 11:43:02;;;;;;;13.93;6.25;;;;;;;;;;4963717;28;20102;-75
2023/01/17 11:45:30;;;;;;;12.57;6.30;;;;;;;;;;4967463;28;20053;-75
2023/01/17 11:48:10;;;;;;;20.95;6.25;;;;;;;;;;4963308;28;20031;-74
2023/01/17 11:50:57;;;;;;;13.05;6.95;;;;;;;;;;4964346;28;20147;-75
2023/01/17 11:53:32;;;;;;;15.55;6.22;;;;;;;;;;4960130;28;20039;-75
2023/01/17 11:56:10;;;;;;;15.55;6.25;;;;;;;;;;4970450;28;20057;-75
2023/01/17 11:58:39;;;;;;;13.15;5.45;;;;;;;;;;4963169;28;20074;-75
2023/01/17 12:01:04;;;;;;;17.77;7.03;;;;;;;;;;4952049;28;20039;-75
2023/01/17 12:03:41;;;;;;;19.23;7.97;;;;;;;;;;4968938;28;20488;-75
2023/01/17 12:06:18;;;;;;;17.65;7.63;;;;;;;;;;4966687;28;20035;-75
2023/01/17 12:09:02;;;;;;;12.82;6.63;;;;;;;;;;4964457;28;20034;-75
2023/01/17 12:13:59;;;;;;;17.27;7.68;;;;;;;;;;4967026;28;20092;-75
2023/01/17 12:15:01;;;;;;;18.10;6.72;;;;;;;;;;4964264;28;20393;-75
2023/01/17 12:17:53;;;;;;;14.07;7.30;;;;;;;;;;4961217;28;20039;-75
2023/01/17 12:20:50;;;;;;;18.45;6.47;;;;;;;;;;4948168;28;20049;-75
2023/01/17 12:23:29;;;;;;;16.30;6.82;;;;;;;;;;4951864;28;20043;-74
2023/01/17 12:26:23;;;;;;;23.55;8.25;;;;;;;;;;4950892;28;20049;-74
2023/01/17 12:29:02;;;;;;;12.82;5.63;;;;;;;;;;4964905;28;20027;-75
2023/01/17 12:31:40;;;;;;;11.80;5.90;;;;;;;;;;4964578;28;20022;-75
2023/01/17 12:34:33;;;;;;;16.17;6.22;;;;;;;;;;4967337;28;20427;-75
2023/01/17 12:37:06;;;;;;;15.07;6.15;;;;;;;;;;4963888;28;20038;-75
2023/01/17 12:39:44;;;;;;;15.43;6.95;;;;;;;;;;4968261;28;20122;-75
2023/01/17 12:42:17;;;;;;;15.30;6.68;;;;;;;;;;4960338;28;20035;-75
2023/01/17 12:45:14;;;;;;;10.43;5.13;;;;;;;;;;4968601;28;20050;-76
2023/01/17 12:47:47;;;;;;;16.40;6.90;;;;;;;;;;4937607;28;20078;-75
2023/01/17 12:50:29;;;;;;;14.05;4.85;;;;;;;;;;4950744;28;20046;-76
2023/01/17 12:53:05;;;;;;;12.38;5.10;;;;;;;;;;4968640;28;20030;-76
2023/01/17 12:55:49;;;;;;;10.35;5.13;;;;;;;;;;4952084;28;20054;-75
2023/01/17 12:58:25;;;;;;;11.75;4.65;;;;;;;;;;4966338;28;20062;-76
2023/01/17 13:01:01;;;;;;;9.52;4.55;;;;;;;;;;4946639;28;20102;-76
2023/01/17 13:03:37;;;;;;;10.10;4.72;;;;;;;;;;4967425;28;20047;-75
2023/01/17 13:06:05;;;;;;;11.93;4.78;;;;;;;;;;5000559;28;20046;-75
2023/01/17 13:08:42;;;;;;;18.35;4.75;;;;;;;;;;4985821;28;20046;-76
2023/01/17 13:11:17;;;;;;;9.70;3.97;;;;;;;;;;4966920;28;20034;-75
2023/01/17 13:13:42;;;;;;;7.13;3.60;;;;;;;;;;4951984;28;20064;-75
2023/01/17 13:16:15;;;;;;;10.10;4.90;;;;;;;;;;4950183;28;20054;-75
2023/01/17 13:18:48;;;;;;;18.77;5.55;;;;;;;;;;4968295;28;20035;-75
2023/01/17 13:21:32;;;;;;;8.60;4.75;;;;;;;;;;4950096;28;20047;-75
2023/01/17 13:23:58;;;;;;;10.38;4.25;;;;;;;;;;4951210;28;20319;-75
2023/01/17 13:26:45;;;;;;;11.70;4.72;;;;;;;;;;4967706;28;20121;-75
2023/01/17 13:29:34;;;;;;;8.93;3.15;;;;;;;;;;4949052;28;20037;-77
2023/01/17 13:32:11;;;;;;;11.77;3.08;;;;;;;;;;4951327;28;20066;-77
2023/01/17 13:34:48;;;;;;;7.90;3.22;;;;;;;;;;4967760;28;20039;-76
2023/01/17 13:37:32;;;;;;;8.13;3.50;;;;;;;;;;4949866;28;20039;-76
2023/01/17 13:40:03;;;;;;;5.70;2.60;;;;;;;;;;4962418;28;20397;-76
2023/01/17 13:42:53;;;;;;;9.43;3.03;;;;;;;;;;4967489;28;20042;-76
2023/01/17 13:45:26;;;;;;;7.55;3.65;;;;;;;;;;4967171;28;20106;-76
2023/01/17 13:47:52;;;;;;;8.00;3.27;;;;;;;;;;4968086;28;20046;-76
2023/01/17 13:50:36;;;;;;;14.07;4.63;;;;;;;;;;4946467;28;20051;-75
2023/01/17 13:53:33;;;;;;;5.80;3.47;;;;;;;;;;4967376;28;20059;-76
2023/01/17 13:56:26;;;;;;;11.73;3.20;;;;;;;;;;4953815;28;20030;-75
2023/01/17 13:58:56;;;;;;;7.03;3.80;;;;;;;;;;4966270;28;20026;-76
2023/01/17 14:01:21;;;;;;;7.68;3.60;;;;;;;;;;4948651;28;20023;-74
2023/01/17 14:03:52;;;;;;;10.75;4.45;;;;;;;;;;4950176;28;20105;-75
2023/01/17 14:06:51;;;;;;;9.48;4.65;;;;;;;;;;4966687;28;20031;-75
2023/01/17 14:09:37;;;;;;;8.23;4.15;;;;;;;;;;4967085;28;20093;-75
2023/01/17 14:12:04;;;;;;;14.32;4.05;;;;;;;;;;4967256;28;20126;-75
2023/01/17 14:14:43;;;;;;;16.40;5.10;;;;;;;;;;4954150;28;20478;-75
2023/01/17 14:17:15;;;;;;;7.85;3.70;;;;;;;;;;4984233;28;20093;-76
2023/01/17 14:19:48;;;;;;;7.03;3.70;;;;;;;;;;4982867;28;20033;-76
2023/01/17 14:22:19;;;;;;;8.35;2.90;;;;;;;;;;4946992;28;20027;-75
2023/01/17 14:25:08;;;;;;;16.02;3.38;;;;;;;;;;4962170;28;20038;-76
2023/01/17 14:27:37;;;;;;;13.15;3.17;;;;;;;;;;4964610;28;20631;-76
2023/01/17 14:30:15;;;;;;;12.45;3.45;;;;;;;;;;4949162;28;20158;-75
2023/01/17 14:32:41;;;;;;;13.27;4.05;;;;;;;;;;4963847;28;20500;-76
2023/01/17 14:35:20;;;;;;;11.23;3.92;;;;;;;;;;4966180;28;20037;-77
2023/01/17 14:37:50;;;;;;;13.30;3.70;;;;;;;;;;4948595;28;20031;-75
2023/01/17 14:40:20;;;;;;;10.88;4.50;;;;;;;;;;4950333;28;20077;-75
2023/01/17 14:42:52;;;;;;;10.40;4.65;;;;;;;;;;4966315;28;20045;-75
2023/01/17 14:45:25;;;;;;;17.85;4.18;;;;;;;;;;4949611;28;20125;-75
2023/01/17 14:47:51;;;;;;;19.75;4.22;;;;;;;;;;4966611;28;20075;-74
2023/01/17 14:50:16;;;;;;;11.65;3.90;;;;;;;;;;4966198;28;20049;-74
2023/01/17 14:52:43;;;;;;;11.75;3.58;;;;;;;;;;4971891;28;20023;-75
2023/01/17 14:55:19;;;;;;;12.98;4.53;;;;;;;;;;4974675;28;20019;-74
2023/01/17 14:57:55;;;;;;;10.80;4.18;;;;;;;;;;4977836;28;20042;-74
2023/01/17 15:00:23;;;;;;;13.00;5.00;;;;;;;;;;4962724;28;20900;-74
2023/01/17 15:02:49;;;;;;;9.63;3.88;;;;;;;;;;4965830;28;20038;-75
2023/01/17 15:05:17;;;;;;;17.75;4.75;;;;;;;;;;4967178;28;20031;-74
2023/01/17 15:07:45;;;;;;;9.00;3.75;;;;;;;;;;4962878;28;20735;-75
2023/01/17 15:10:13;;;;;;;9.82;4.63;;;;;;;;;;4965835;28;20031;-74
2023/01/17 15:12:39;;;;;;;15.60;4.65;;;;;;;;;;4967712;28;20084;-76
2023/01/17 15:15:26;;;;;;;15.13;4.45;;;;;;;;;;4978897;28;20042;-75
2023/01/17 15:17:52;;;;;;;19.17;4.47;;;;;;;;;;4986689;28;20089;-75
2023/01/17 15:20:19;;;;;;;12.20;4.07;;;;;;;;;;4978116;28;20030;-75
2023/01/17 15:22:44;;;;;;;9.98;5.60;;;;;;;;;;4966233;28;20381;-75
2023/01/17 15:25:10;;;;;;;13.52;4.60;;;;;;;;;;4971521;28;20096;-74
2023/01/17 15:27:36;;;;;;;14.18;5.70;;;;;;;;;;4970122;28;20054;-74
2023/01/17 15:30:05;;;;;;;13.05;5.53;;;;;;;;;;4969671;28;20066;-74
2023/01/17 15:32:30;;;;;;;12.48;4.82;;;;;;;;;;4966629;28;20039;-75
2023/01/17 15:34:58;;;;;;;12.02;4.22;;;;;;;;;;4964725;28;20034;-73
2023/01/17 15:37:28;;;;;;;14.80;4.78;;;;;;;;;;4964539;28;20187;-73
2023/01/17 15:40:06;;;;;;;17.30;5.88;;;;;;;;;;4987141;28;20077;-74
2023/01/17 15:42:35;;;;;;;16.85;6.38;;;;;;;;;;4986579;28;20037;-75
2023/01/17 15:45:05;;;;;;;10.85;4.40;;;;;;;;;;4984936;28;20568;-75
2023/01/17 15:47:32;;;;;;;13.88;4.45;;;;;;;;;;4965325;28;20067;-75
2023/01/17 15:49:59;;;;;;;12.18;4.07;;;;;;;;;;4970244;28;20042;-75
2023/01/17 15:52:25;;;;;;;10.82;4.07;;;;;;;;;;4974125;28;20018;-75
2023/01/17 15:54:53;;;;;;;11.13;3.95;;;;;;;;;;4986436;28;20157;-76
2023/01/17 15:57:29;;;;;;;11.40;3.90;;;;;;;;;;4976260;28;20027;-75
2023/01/17 16:00:05;;;;;;;13.55;3.83;;;;;;;;;;4968248;28;20628;-75
2023/01/17 16:02:45;;;;;;;13.23;5.22;;;;;;;;;;4957809;28;20041;-76
2023/01/17 16:05:32;;;;;;;11.10;4.05;;;;;;;;;;4969435;28;20078;-76
2023/01/17 16:08:00;;;;;;;8.25;4.10;;;;;;;;;;4968663;28;20043;-76
2023/01/17 16:10:27;;;;;;;10.52;3.55;;;;;;;;;;4970079;28;20070;-76
2023/01/17 16:12:56;;;;;;;15.82;4.53;;;;;;;;;;4967597;28;20118;-76
2023/01/17 16:15:22;;;;;;;11.18;4.07;;;;;;;;;;4967683;28;20524;-75
2023/01/17 16:17:51;;;;;;;10.15;4.30;;;;;;;;;;4966386;28;20046;-76
2023/01/17 16:20:21;;;;;;;17.30;4.53;;;;;;;;;;4967495;28;20072;-76